createdAt,value
2022-11-03T00:00:13.006Z,213.20
2022-11-03T00:00:45.401Z,249.54
2022-11-03T00:01:17.714Z,239.68
2022-11-03T00:01:51.373Z,221.88
2022-11-03T00:02:23.800Z,244.45
2022-11-03T00:02:56.126Z,247.77
2022-11-03T00:03:28.391Z,227.40
2022-11-03T00:04:00.625Z,174.30
2022-11-03T00:04:32.853Z,204.30
2022-11-03T00:05:25.173Z,231.20
2022-11-03T00:06:06.470Z,256.50
2022-11-03T00:06:40.027Z,245.78
2022-11-03T00:07:12.644Z,221.15
2022-11-03T00:07:45.184Z,241.27
2022-11-03T00:08:17.397Z,149.12
2022-11-03T00:08:49.635Z,219.04
2022-11-03T00:09:22.637Z,193.50
2022-11-03T00:09:54.835Z,173.16
2022-11-03T00:10:27.038Z,212.26
2022-11-03T00:11:06.049Z,248.95
2022-11-03T00:11:39.229Z,260.62
2022-11-03T00:12:11.557Z,253.02
2022-11-03T00:12:43.745Z,250.04
2022-11-03T00:13:15.976Z,210.55
2022-11-03T00:13:48.285Z,233.57
2022-11-03T00:14:20.812Z,192.08
2022-11-03T00:14:53.107Z,242.74
2022-11-03T00:15:25.474Z,252.26
2022-11-03T00:15:57.689Z,239.14
2022-11-03T00:16:30.168Z,220.00
2022-11-03T00:17:02.433Z,215.18
2022-11-03T00:17:34.713Z,229.16
2022-11-03T00:18:07.052Z,225.16
2022-11-03T00:18:39.489Z,263.28
2022-11-03T00:19:11.747Z,269.45
2022-11-03T00:19:43.930Z,229.16
2022-11-03T00:20:16.236Z,254.54
2022-11-03T00:21:01.589Z,230.08
2022-11-03T00:21:33.925Z,257.33
2022-11-03T00:22:06.113Z,221.76
2022-11-03T00:22:38.285Z,211.18
2022-11-03T00:23:10.545Z,184.65
2022-11-03T00:23:43.700Z,207.58
2022-11-03T00:24:15.978Z,231.44
2022-11-03T00:24:48.179Z,215.32
2022-11-03T00:25:20.516Z,246.02
2022-11-03T00:25:52.714Z,166.86
2022-11-03T00:26:26.022Z,247.18
2022-11-03T00:26:58.236Z,229.30
2022-11-03T00:27:30.435Z,207.34
2022-11-03T00:28:36.273Z,240.78
2022-11-03T00:29:14.416Z,207.23
2022-11-03T00:29:46.750Z,235.34
2022-11-03T00:30:18.955Z,204.92
2022-11-03T00:30:51.434Z,191.48
2022-11-03T00:31:25.166Z,232.46
2022-11-03T00:31:57.368Z,238.50
2022-11-03T00:32:29.551Z,257.70
2022-11-03T00:33:01.756Z,241.10
2022-11-03T00:33:33.993Z,238.94
2022-11-03T00:34:07.375Z,247.82
2022-11-03T00:34:39.581Z,207.80
2022-11-03T00:35:11.879Z,230.12
2022-11-03T00:35:44.086Z,217.42
2022-11-03T00:36:18.062Z,255.90
2022-11-03T00:36:50.310Z,232.12
2022-11-03T00:37:22.508Z,188.58
2022-11-03T00:37:54.673Z,218.00
2022-11-03T00:38:27.336Z,215.38
2022-11-03T00:38:59.571Z,237.58
2022-11-03T00:39:31.800Z,248.62
2022-11-03T00:40:04.176Z,235.42
2022-11-03T00:40:36.561Z,232.60
2022-11-03T00:41:08.832Z,190.64
2022-11-03T00:41:41.298Z,167.10
2022-11-03T00:42:13.529Z,211.36
2022-11-03T00:42:46.304Z,234.98
2022-11-03T00:43:18.555Z,209.12
2022-11-03T00:43:51.324Z,201.80
2022-11-03T00:44:23.531Z,219.74
2022-11-03T00:44:55.734Z,205.42
2022-11-03T00:45:27.909Z,197.66
2022-11-03T00:46:00.636Z,220.32
2022-11-03T00:46:36.022Z,223.94
2022-11-03T00:47:08.347Z,219.58
2022-11-03T00:48:00.544Z,246.44
2022-11-03T00:48:33.902Z,244.00
2022-11-03T00:49:06.127Z,243.28
2022-11-03T00:49:38.319Z,221.38
2022-11-03T00:50:10.561Z,229.38
2022-11-03T00:50:42.798Z,200.64
2022-11-03T00:51:16.198Z,219.86
2022-11-03T00:51:48.485Z,207.38
2022-11-03T00:52:20.731Z,243.60
2022-11-03T00:52:53.553Z,219.06
2022-11-03T00:53:25.736Z,219.04
2022-11-03T00:53:58.729Z,181.46
2022-11-03T00:54:31.054Z,172.18
2022-11-03T00:55:03.319Z,189.94
2022-11-03T00:55:35.686Z,165.16
2022-11-03T00:56:09.905Z,175.92
2022-11-03T00:56:42.809Z,215.98
2022-11-03T00:57:15.041Z,232.02
2022-11-03T00:57:47.237Z,163.48
2022-11-03T00:58:19.521Z,167.90
2022-11-03T00:58:53.759Z,190.56
2022-11-03T00:59:25.937Z,227.66
2022-11-03T00:59:58.141Z,220.90
2022-11-03T01:00:30.452Z,155.88
2022-11-03T01:01:07.670Z,149.52
2022-11-03T01:01:46.012Z,153.52
2022-11-03T01:02:19.734Z,238.63
2022-11-03T01:02:51.958Z,121.22
2022-11-03T01:03:24.225Z,201.74
2022-11-03T01:04:16.019Z,160.42
2022-11-03T01:05:07.014Z,240.00
2022-11-03T01:06:04.021Z,212.50
2022-11-03T01:06:52.823Z,196.46
2022-11-03T01:07:25.108Z,249.94
2022-11-03T01:08:34.807Z,212.00
2022-11-03T01:09:07.053Z,232.32
2022-11-03T01:09:40.276Z,218.06
2022-11-03T01:10:12.475Z,192.82
2022-11-03T01:11:04.703Z,208.78
2022-11-03T01:11:45.996Z,242.86
2022-11-03T01:12:19.241Z,221.52
2022-11-03T01:12:51.527Z,226.06
2022-11-03T01:13:23.891Z,190.88
2022-11-03T01:13:56.219Z,170.24
2022-11-03T01:14:33.435Z,203.42
2022-11-03T01:15:05.864Z,188.64
2022-11-03T01:15:38.032Z,201.48
2022-11-03T01:16:10.270Z,157.90
2022-11-03T01:16:42.789Z,166.62
2022-11-03T01:17:16.511Z,146.92
2022-11-03T01:17:48.677Z,127.50
2022-11-03T01:18:20.921Z,187.50
2022-11-03T01:18:53.499Z,190.98
2022-11-03T01:19:25.985Z,213.96
2022-11-03T01:19:58.159Z,170.06
2022-11-03T01:20:30.313Z,183.78
2022-11-03T01:21:02.537Z,168.92
2022-11-03T01:21:34.959Z,170.98
2022-11-03T01:22:10.656Z,169.08
2022-11-03T01:22:43.374Z,223.72
2022-11-03T01:23:15.773Z,168.90
2022-11-03T01:23:48.501Z,212.98
2022-11-03T01:24:21.204Z,204.12
2022-11-03T01:24:53.414Z,108.34
2022-11-03T01:25:26.589Z,137.48
2022-11-03T01:26:03.577Z,144.04
2022-11-03T01:26:35.834Z,164.64
2022-11-03T01:27:08.839Z,115.20
2022-11-03T01:27:41.033Z,133.66
2022-11-03T01:28:13.280Z,184.18
2022-11-03T01:28:46.493Z,183.92
2022-11-03T01:29:18.769Z,182.86
2022-11-03T01:29:50.986Z,208.16
2022-11-03T01:30:23.248Z,143.68
2022-11-03T01:30:55.459Z,188.14
2022-11-03T01:31:28.225Z,133.70
2022-11-03T01:32:00.455Z,155.06
2022-11-03T01:32:32.712Z,112.10
2022-11-03T01:33:05.239Z,149.24
2022-11-03T01:33:38.252Z,190.44
2022-11-03T01:34:15.635Z,163.56
2022-11-03T01:34:47.923Z,234.52
2022-11-03T01:35:20.135Z,194.68
2022-11-03T01:35:55.477Z,171.40
2022-11-03T01:36:27.714Z,208.68
2022-11-03T01:37:00.108Z,232.22
2022-11-03T01:37:32.329Z,205.76
2022-11-03T01:38:04.565Z,227.82
2022-11-03T01:38:37.126Z,183.32
2022-11-03T01:39:13.405Z,175.54
2022-11-03T01:39:45.596Z,226.30
2022-11-03T01:40:17.906Z,221.56
2022-11-03T01:40:50.114Z,144.90
2022-11-03T01:41:27.122Z,204.80
2022-11-03T01:41:59.516Z,241.28
2022-11-03T01:42:31.742Z,203.58
2022-11-03T01:43:20.716Z,166.94
2022-11-03T01:44:25.289Z,241.78
2022-11-03T01:44:57.637Z,253.55
2022-11-03T01:45:29.853Z,220.76
2022-11-03T01:46:13.390Z,188.74
2022-11-03T01:46:50.112Z,226.24
2022-11-03T01:47:29.660Z,218.30
2022-11-03T01:48:01.994Z,242.13
2022-11-03T01:48:34.736Z,210.00
2022-11-03T01:49:29.945Z,181.32
2022-11-03T01:50:02.394Z,248.34
2022-11-03T01:50:35.428Z,195.42
2022-11-03T01:51:08.473Z,210.70
2022-11-03T01:51:42.052Z,201.56
2022-11-03T01:52:23.094Z,191.24
2022-11-03T01:52:57.959Z,225.40
2022-11-03T01:53:30.403Z,239.46
2022-11-03T01:54:04.737Z,219.44
2022-11-03T01:54:38.170Z,157.90
2022-11-03T01:55:13.129Z,219.48
2022-11-03T01:55:47.002Z,217.27
2022-11-03T01:56:20.088Z,211.22
2022-11-03T01:56:52.816Z,200.26
2022-11-03T01:57:27.295Z,152.38
2022-11-03T01:58:12.164Z,219.77
2022-11-03T01:58:46.996Z,235.34
2022-11-03T01:59:20.889Z,240.27
2022-11-03T01:59:54.840Z,223.90
2022-11-03T02:00:30.591Z,248.18
2022-11-03T02:01:02.914Z,191.26
2022-11-03T02:01:35.542Z,240.24
2022-11-03T02:02:08.337Z,206.78
2022-11-03T02:02:41.402Z,215.98
2022-11-03T02:03:14.557Z,197.55
2022-11-03T02:03:50.239Z,198.14
2022-11-03T02:04:31.515Z,190.50
2022-11-03T02:05:04.547Z,235.40
2022-11-03T02:05:37.130Z,210.88
2022-11-03T02:06:09.895Z,220.12
2022-11-03T02:06:42.506Z,175.32
2022-11-03T02:07:26.995Z,235.18
2022-11-03T02:08:02.425Z,215.38
2022-11-03T02:08:36.733Z,212.65
2022-11-03T02:09:09.545Z,250.10
2022-11-03T02:09:41.722Z,144.46
2022-11-03T02:10:14.394Z,158.70
2022-11-03T02:10:49.913Z,200.32
2022-11-03T02:11:40.875Z,212.00
2022-11-03T02:12:14.595Z,244.02
2022-11-03T02:12:47.351Z,177.73
2022-11-03T02:13:23.720Z,242.60
2022-11-03T02:13:56.049Z,244.35
2022-11-03T02:14:28.251Z,199.52
2022-11-03T02:15:06.435Z,189.22
2022-11-03T02:15:38.936Z,224.40
2022-11-03T02:16:11.307Z,234.80
2022-11-03T02:16:56.377Z,219.05
2022-11-03T02:17:30.222Z,245.25
2022-11-03T02:18:03.068Z,244.60
2022-11-03T02:18:35.475Z,239.57
2022-11-03T02:19:10.291Z,240.85
2022-11-03T02:19:51.249Z,251.68
2022-11-03T02:20:24.957Z,223.80
2022-11-03T02:21:16.137Z,166.20
2022-11-03T02:21:52.280Z,279.38
2022-11-03T02:22:30.291Z,268.90
2022-11-03T02:23:21.407Z,257.83
2022-11-03T02:24:03.450Z,312.65
2022-11-03T02:24:41.879Z,287.50
2022-11-03T02:25:32.555Z,315.00
2022-11-03T02:26:06.621Z,322.00
2022-11-03T02:26:39.468Z,325.48
2022-11-03T02:27:11.770Z,297.15
2022-11-03T02:27:44.473Z,302.20
2022-11-03T02:28:18.786Z,274.95
2022-11-03T02:28:50.999Z,291.23
2022-11-03T02:29:23.268Z,260.14
2022-11-03T02:29:57.615Z,268.23
2022-11-03T02:30:34.430Z,250.50
2022-11-03T02:31:06.580Z,295.08
2022-11-03T02:31:42.707Z,280.48
2022-11-03T02:32:14.913Z,254.80
2022-11-03T02:32:57.520Z,275.83
2022-11-03T02:33:32.693Z,314.05
2022-11-03T02:34:08.584Z,292.83
2022-11-03T02:35:04.063Z,295.35
2022-11-03T02:35:43.876Z,299.05
2022-11-03T02:36:22.242Z,324.80
2022-11-03T02:36:59.977Z,280.42
2022-11-03T02:37:34.820Z,315.65
2022-11-03T02:38:09.672Z,276.65
2022-11-03T02:38:45.746Z,279.55
2022-11-03T02:39:21.338Z,275.77
2022-11-03T02:39:57.334Z,288.70
2022-11-03T02:40:34.033Z,286.67
2022-11-03T02:41:08.379Z,296.95
2022-11-03T02:41:41.717Z,275.65
2022-11-03T02:42:14.394Z,272.33
2022-11-03T02:42:48.720Z,290.10
2022-11-03T02:43:22.609Z,280.98
2022-11-03T02:43:55.890Z,269.42
2022-11-03T02:44:28.663Z,294.05
2022-11-03T02:45:02.046Z,276.08
2022-11-03T02:45:34.332Z,279.90
2022-11-03T02:46:07.109Z,249.80
2022-11-03T02:46:39.893Z,245.25
2022-11-03T02:47:13.101Z,241.88
2022-11-03T02:47:46.648Z,212.35
2022-11-03T02:48:19.214Z,246.78
2022-11-03T02:48:52.334Z,243.38
2022-11-03T02:49:24.813Z,236.06
2022-11-03T02:49:57.133Z,255.35
2022-11-03T02:50:30.300Z,279.46
2022-11-03T02:51:03.424Z,245.70
2022-11-03T02:51:35.644Z,270.35
2022-11-03T02:52:27.852Z,273.55
2022-11-03T02:53:00.379Z,309.73
2022-11-03T02:53:37.040Z,285.48
2022-11-03T02:54:16.656Z,300.05
2022-11-03T02:54:49.269Z,312.90
2022-11-03T02:55:39.534Z,284.15
2022-11-03T02:56:15.281Z,321.75
2022-11-03T02:56:52.864Z,312.67
2022-11-03T02:57:29.657Z,281.83
2022-11-03T02:58:16.906Z,326.58
2022-11-03T02:59:01.475Z,330.92
2022-11-03T02:59:39.736Z,328.50
2022-11-03T03:00:12.736Z,326.42
2022-11-03T03:00:47.644Z,290.60
2022-11-03T03:01:25.867Z,317.48
2022-11-03T03:02:07.054Z,334.38
2022-11-03T03:02:44.662Z,335.20
2022-11-03T03:03:25.625Z,320.15
2022-11-03T03:04:02.952Z,332.38
2022-11-03T03:04:39.303Z,320.73
2022-11-03T03:05:14.000Z,307.27
2022-11-03T03:05:47.179Z,326.02
2022-11-03T03:06:22.649Z,339.02
2022-11-03T03:06:57.318Z,321.65
2022-11-03T03:07:34.417Z,342.73
2022-11-03T03:08:08.029Z,303.98
2022-11-03T03:08:43.769Z,323.08
2022-11-03T03:09:19.107Z,335.35
2022-11-03T03:09:58.179Z,322.70
2022-11-03T03:10:33.586Z,355.63
2022-11-03T03:11:06.392Z,331.08
2022-11-03T03:11:41.120Z,302.90
2022-11-03T03:12:14.336Z,291.00
2022-11-03T03:12:48.260Z,313.05
2022-11-03T03:13:22.741Z,326.33
2022-11-03T03:13:55.102Z,310.05
2022-11-03T03:14:34.249Z,315.15
2022-11-03T03:15:08.216Z,334.75
2022-11-03T03:15:46.624Z,317.42
2022-11-03T03:16:26.400Z,344.05
2022-11-03T03:17:00.889Z,300.05
2022-11-03T03:17:40.417Z,313.83
2022-11-03T03:18:20.231Z,344.73
2022-11-03T03:19:12.650Z,297.65
2022-11-03T03:19:47.777Z,324.33
2022-11-03T03:20:31.650Z,334.77
2022-11-03T03:21:08.060Z,352.52
2022-11-03T03:21:44.120Z,330.13
2022-11-03T03:22:36.665Z,305.27
2022-11-03T03:23:16.327Z,331.40
2022-11-03T03:23:55.754Z,354.65
2022-11-03T03:24:41.707Z,347.17
2022-11-03T03:25:20.126Z,349.05
2022-11-03T03:26:03.463Z,345.73
2022-11-03T03:26:37.884Z,362.40
2022-11-03T03:27:12.145Z,358.70
2022-11-03T03:27:47.498Z,360.20
2022-11-03T03:28:23.123Z,355.63
2022-11-03T03:29:09.834Z,336.28
2022-11-03T03:29:54.836Z,367.17
2022-11-03T03:30:28.027Z,362.85
2022-11-03T03:31:01.335Z,344.80
2022-11-03T03:31:35.115Z,338.45
2022-11-03T03:32:08.929Z,343.67
2022-11-03T03:32:44.603Z,365.10
2022-11-03T03:33:17.976Z,360.50
2022-11-03T03:33:53.308Z,373.23
2022-11-03T03:34:35.375Z,356.20
2022-11-03T03:35:09.821Z,367.08
2022-11-03T03:35:44.365Z,333.73
2022-11-03T03:36:18.271Z,356.45
2022-11-03T03:36:51.304Z,293.34
2022-11-03T03:37:24.841Z,311.04
2022-11-03T03:37:59.295Z,338.60
2022-11-03T03:38:34.104Z,331.46
2022-11-03T03:39:07.163Z,347.88
2022-11-03T03:39:42.203Z,371.30
2022-11-03T03:40:17.300Z,365.15
2022-11-03T03:40:51.586Z,369.42
2022-11-03T03:41:25.018Z,374.38
2022-11-03T03:41:58.757Z,361.95
2022-11-03T03:42:31.934Z,354.15
2022-11-03T03:43:06.768Z,370.75
2022-11-03T03:43:40.721Z,331.83
2022-11-03T03:44:13.524Z,321.38
2022-11-03T03:44:46.445Z,310.67
2022-11-03T03:45:19.543Z,331.60
2022-11-03T03:45:53.079Z,341.33
2022-11-03T03:46:28.803Z,336.67
2022-11-03T03:47:03.628Z,355.05
2022-11-03T03:47:36.373Z,361.50
2022-11-03T03:48:08.938Z,344.75
2022-11-03T03:48:41.491Z,344.23
2022-11-03T03:49:14.640Z,345.63
2022-11-03T03:49:46.889Z,343.23
2022-11-03T03:50:19.729Z,294.30
2022-11-03T03:50:52.577Z,321.56
2022-11-03T03:51:26.852Z,339.10
2022-11-03T03:51:59.549Z,339.20
2022-11-03T03:52:33.783Z,361.75
2022-11-03T03:53:07.057Z,347.27
2022-11-03T03:53:39.329Z,327.38
2022-11-03T03:54:11.602Z,358.50
2022-11-03T03:54:44.043Z,348.38
2022-11-03T03:55:18.100Z,352.58
2022-11-03T03:55:51.263Z,350.88
2022-11-03T03:56:26.273Z,354.50
2022-11-03T03:57:03.293Z,377.77
2022-11-03T03:57:35.621Z,374.63
2022-11-03T03:58:08.570Z,371.42
2022-11-03T03:58:41.271Z,372.83
2022-11-03T03:59:13.686Z,368.45
2022-11-03T03:59:46.330Z,367.45
2022-11-03T04:00:19.606Z,377.25
2022-11-03T04:00:51.989Z,386.02
2022-11-03T04:01:24.424Z,342.55
2022-11-03T04:01:57.211Z,340.45
2022-11-03T04:02:29.555Z,344.25
2022-11-03T04:03:01.829Z,378.90
2022-11-03T04:03:34.075Z,346.48
2022-11-03T04:04:06.283Z,334.33
2022-11-03T04:04:38.698Z,367.90
2022-11-03T04:05:11.256Z,355.02
2022-11-03T04:05:44.062Z,318.48
2022-11-03T04:06:16.314Z,358.85
2022-11-03T04:06:48.596Z,373.35
2022-11-03T04:07:42.597Z,363.08
2022-11-03T04:08:16.726Z,384.90
2022-11-03T04:08:48.923Z,371.35
2022-11-03T04:09:21.112Z,380.25
2022-11-03T04:09:53.359Z,354.95
2022-11-03T04:10:25.649Z,366.98
2022-11-03T04:11:16.611Z,319.05
2022-11-03T04:12:07.553Z,400.10
2022-11-03T04:13:01.847Z,401.08
2022-11-03T04:13:52.922Z,381.30
2022-11-03T04:14:43.702Z,407.17
2022-11-03T04:15:34.343Z,425.67
2022-11-03T04:16:27.823Z,425.35
2022-11-03T04:17:19.128Z,422.83
2022-11-03T04:18:10.412Z,421.55
2022-11-03T04:19:01.369Z,417.38
2022-11-03T04:19:52.299Z,416.95
2022-11-03T04:20:43.538Z,425.92
2022-11-03T04:21:34.507Z,431.15
2022-11-03T04:22:16.845Z,421.58
2022-11-03T04:22:49.140Z,440.63
2022-11-03T04:23:21.563Z,416.05
2022-11-03T04:23:53.903Z,428.73
2022-11-03T04:24:26.242Z,436.02
2022-11-03T04:24:58.990Z,420.65
2022-11-03T04:25:31.228Z,431.92
2022-11-03T04:26:04.695Z,409.70
2022-11-03T04:26:36.960Z,423.27
2022-11-03T04:27:32.093Z,423.77
2022-11-03T04:28:14.515Z,448.98
2022-11-03T04:28:46.815Z,444.25
2022-11-03T04:29:19.221Z,440.00
2022-11-03T04:29:52.157Z,410.23
2022-11-03T04:30:26.516Z,417.45
2022-11-03T04:30:59.724Z,446.35
2022-11-03T04:31:34.761Z,439.55
2022-11-03T04:32:14.084Z,457.48
2022-11-03T04:32:47.101Z,459.08
2022-11-03T04:33:21.241Z,453.77
2022-11-03T04:33:53.511Z,451.23
2022-11-03T04:34:25.826Z,439.17
2022-11-03T04:34:59.176Z,440.75
2022-11-03T04:35:31.461Z,432.70
2022-11-03T04:36:09.728Z,428.05
2022-11-03T04:36:42.451Z,438.15
2022-11-03T04:37:15.213Z,445.92
2022-11-03T04:37:58.670Z,436.83
2022-11-03T04:38:30.964Z,428.83
2022-11-03T04:39:11.194Z,382.65
2022-11-03T04:40:17.701Z,369.20
2022-11-03T04:40:57.808Z,381.33
2022-11-03T04:42:02.459Z,389.30
2022-11-03T04:42:35.337Z,340.80
2022-11-03T04:43:12.723Z,328.27
2022-11-03T04:43:45.974Z,328.70
2022-11-03T04:44:18.753Z,314.80
2022-11-03T04:44:51.279Z,325.63
2022-11-03T04:45:26.022Z,320.98
2022-11-03T04:45:58.700Z,288.80
2022-11-03T04:46:31.374Z,292.45
2022-11-03T04:47:05.855Z,328.42
2022-11-03T04:47:38.249Z,339.40
2022-11-03T04:48:21.313Z,330.42
2022-11-03T04:49:02.577Z,349.77
2022-11-03T04:49:35.293Z,358.73
2022-11-03T04:50:15.293Z,335.63
2022-11-03T04:51:22.497Z,327.73
2022-11-03T04:51:54.832Z,312.02
2022-11-03T04:52:27.148Z,304.65
2022-11-03T04:52:59.702Z,272.98
2022-11-03T04:53:33.221Z,283.48
2022-11-03T04:54:16.649Z,273.90
2022-11-03T04:54:50.872Z,295.38
2022-11-03T04:55:23.230Z,278.58
2022-11-03T04:55:55.672Z,227.20
2022-11-03T04:56:28.331Z,283.70
2022-11-03T04:57:02.819Z,294.15
2022-11-03T04:57:35.394Z,285.85
2022-11-03T04:58:28.025Z,245.85
2022-11-03T04:59:00.492Z,287.38
2022-11-03T04:59:33.202Z,246.18
2022-11-03T05:00:06.721Z,253.80
2022-11-03T05:00:39.428Z,248.93
2022-11-03T05:01:13.257Z,246.57
2022-11-03T05:01:46.721Z,263.15
2022-11-03T05:02:22.207Z,234.62
2022-11-03T05:02:56.232Z,237.40
2022-11-03T05:03:36.294Z,233.66
2022-11-03T05:04:16.683Z,283.38
2022-11-03T05:04:49.159Z,306.08
2022-11-03T05:05:22.689Z,266.08
2022-11-03T05:05:54.987Z,262.40
2022-11-03T05:06:28.180Z,292.92
2022-11-03T05:07:00.626Z,279.25
2022-11-03T05:07:34.584Z,267.10
2022-11-03T05:08:08.860Z,286.92
2022-11-03T05:08:41.941Z,303.77
2022-11-03T05:09:19.935Z,283.42
2022-11-03T05:09:52.760Z,296.88
2022-11-03T05:10:26.133Z,263.46
2022-11-03T05:10:59.809Z,284.85
2022-11-03T05:11:36.569Z,301.33
2022-11-03T05:12:09.540Z,298.95
2022-11-03T05:12:42.241Z,307.25
2022-11-03T05:13:19.147Z,260.92
2022-11-03T05:13:52.535Z,296.63
2022-11-03T05:14:26.463Z,251.70
2022-11-03T05:14:59.225Z,299.42
2022-11-03T05:15:41.094Z,313.42
2022-11-03T05:16:13.671Z,327.17
2022-11-03T05:16:46.533Z,319.20
2022-11-03T05:17:23.167Z,263.25
2022-11-03T05:17:55.939Z,299.77
2022-11-03T05:18:37.326Z,310.08
2022-11-03T05:19:14.924Z,335.75
2022-11-03T05:19:47.427Z,359.40
2022-11-03T05:20:40.238Z,320.20
2022-11-03T05:21:14.238Z,362.60
2022-11-03T05:21:49.676Z,345.38
2022-11-03T05:22:22.704Z,361.92
2022-11-03T05:22:55.040Z,302.00
2022-11-03T05:23:28.521Z,304.45
2022-11-03T05:24:06.441Z,283.52
2022-11-03T05:24:38.833Z,311.92
2022-11-03T05:25:28.649Z,320.58
2022-11-03T05:26:01.024Z,352.35
2022-11-03T05:26:34.703Z,320.95
2022-11-03T05:27:10.788Z,312.85
2022-11-03T05:27:43.112Z,233.77
2022-11-03T05:28:23.117Z,289.42
2022-11-03T05:29:34.111Z,329.27
2022-11-03T05:30:07.245Z,301.42
2022-11-03T05:30:39.526Z,253.50
2022-11-03T05:31:31.012Z,310.55
2022-11-03T05:32:04.021Z,315.17
2022-11-03T05:32:36.494Z,268.25
2022-11-03T05:33:18.620Z,257.85
2022-11-03T05:33:52.350Z,313.10
2022-11-03T05:34:30.376Z,298.08
2022-11-03T05:35:03.439Z,266.55
2022-11-03T05:35:35.914Z,243.68
2022-11-03T05:36:17.278Z,304.90
2022-11-03T05:36:49.725Z,286.63
2022-11-03T05:37:32.218Z,313.00
2022-11-03T05:38:09.302Z,307.80
2022-11-03T05:38:41.770Z,314.33
2022-11-03T05:39:16.851Z,301.50
2022-11-03T05:39:50.569Z,290.00
2022-11-03T05:40:24.020Z,302.15
2022-11-03T05:40:56.855Z,300.17
2022-11-03T05:41:30.352Z,259.77
2022-11-03T05:42:03.218Z,317.45
2022-11-03T05:42:37.591Z,299.50
2022-11-03T05:43:12.359Z,284.85
2022-11-03T05:43:44.822Z,304.63
2022-11-03T05:44:37.208Z,268.20
2022-11-03T05:45:16.159Z,326.00
2022-11-03T05:45:52.435Z,301.52
2022-11-03T05:46:27.526Z,299.25
2022-11-03T05:47:03.275Z,241.32
2022-11-03T05:47:39.212Z,305.17
2022-11-03T05:48:37.853Z,280.17
2022-11-03T05:49:10.881Z,305.23
2022-11-03T05:49:43.422Z,283.65
2022-11-03T05:50:21.776Z,280.25
2022-11-03T05:50:54.113Z,269.55
2022-11-03T05:51:30.491Z,254.82
2022-11-03T05:52:02.841Z,291.65
2022-11-03T05:52:35.353Z,279.45
2022-11-03T05:53:16.799Z,270.77
2022-11-03T05:53:51.275Z,278.23
2022-11-03T05:54:24.548Z,293.38
2022-11-03T05:54:58.777Z,311.58
2022-11-03T05:55:33.098Z,262.17
2022-11-03T05:56:06.789Z,263.92
2022-11-03T05:56:39.036Z,285.48
2022-11-03T05:57:14.063Z,282.88
2022-11-03T05:57:46.854Z,294.65
2022-11-03T05:58:19.141Z,283.23
2022-11-03T05:58:52.531Z,287.10
2022-11-03T05:59:27.079Z,247.60
2022-11-03T06:00:00.732Z,235.50
2022-11-03T06:00:37.514Z,219.25
2022-11-03T06:01:26.005Z,238.80
2022-11-03T06:02:00.231Z,274.42
2022-11-03T06:02:42.723Z,270.08
2022-11-03T06:03:21.150Z,276.52
2022-11-03T06:03:53.522Z,248.75
2022-11-03T06:04:28.583Z,241.43
2022-11-03T06:05:01.037Z,260.67
2022-11-03T06:05:34.534Z,263.38
2022-11-03T06:06:18.985Z,251.98
2022-11-03T06:06:54.157Z,263.70
2022-11-03T06:07:27.365Z,242.10
2022-11-03T06:08:01.143Z,218.93
2022-11-03T06:08:38.962Z,278.17
2022-11-03T06:09:16.816Z,292.33
2022-11-03T06:09:49.307Z,291.17
2022-11-03T06:10:24.543Z,226.68
2022-11-03T06:10:58.583Z,260.42
2022-11-03T06:11:35.680Z,263.05
2022-11-03T06:12:12.161Z,279.02
2022-11-03T06:12:44.450Z,250.63
2022-11-03T06:13:19.384Z,238.40
2022-11-03T06:13:51.716Z,277.70
2022-11-03T06:14:25.573Z,262.75
2022-11-03T06:14:57.845Z,264.74
2022-11-03T06:15:31.951Z,249.63
2022-11-03T06:16:22.927Z,241.35
2022-11-03T06:17:06.280Z,289.10
2022-11-03T06:17:38.733Z,221.15
2022-11-03T06:18:14.812Z,252.40
2022-11-03T06:18:47.435Z,238.64
2022-11-03T06:19:20.196Z,217.55
2022-11-03T06:19:54.334Z,268.65
2022-11-03T06:20:26.686Z,219.85
2022-11-03T06:21:03.052Z,248.15
2022-11-03T06:21:35.343Z,198.35
2022-11-03T06:22:28.889Z,191.26
2022-11-03T06:23:01.754Z,239.65
2022-11-03T06:23:36.094Z,274.88
2022-11-03T06:24:10.028Z,264.63
2022-11-03T06:24:42.488Z,261.80
2022-11-03T06:25:20.480Z,220.50
2022-11-03T06:25:53.614Z,248.57
2022-11-03T06:26:27.276Z,244.00
2022-11-03T06:26:59.872Z,208.57
2022-11-03T06:27:32.450Z,228.68
2022-11-03T06:28:13.332Z,189.73
2022-11-03T06:28:45.966Z,183.88
2022-11-03T06:29:19.225Z,193.30
2022-11-03T06:29:57.833Z,209.82
2022-11-03T06:30:31.638Z,239.50
2022-11-03T06:31:15.742Z,223.30
2022-11-03T06:31:54.708Z,257.63
2022-11-03T06:32:28.340Z,213.90
2022-11-03T06:33:02.053Z,196.70
2022-11-03T06:33:35.068Z,210.77
2022-11-03T06:34:19.034Z,215.70
2022-11-03T06:34:55.403Z,243.88
2022-11-03T06:35:28.132Z,179.30
2022-11-03T06:36:20.617Z,235.52
2022-11-03T06:36:53.045Z,259.50
2022-11-03T06:37:31.359Z,270.60
2022-11-03T06:38:03.721Z,246.63
2022-11-03T06:38:36.194Z,256.77
2022-11-03T06:39:18.299Z,215.50
2022-11-03T06:39:51.553Z,245.80
2022-11-03T06:40:25.073Z,235.02
2022-11-03T06:40:58.605Z,228.92
2022-11-03T06:41:32.542Z,248.32
2022-11-03T06:42:12.057Z,199.62
2022-11-03T06:42:44.354Z,265.52
2022-11-03T06:43:27.754Z,249.02
2022-11-03T06:44:01.945Z,269.65
2022-11-03T06:44:39.149Z,243.82
2022-11-03T06:45:17.550Z,240.94
2022-11-03T06:45:51.439Z,243.82
2022-11-03T06:46:25.031Z,246.34
2022-11-03T06:47:00.303Z,234.90
2022-11-03T06:47:33.033Z,247.38
2022-11-03T06:48:06.302Z,220.82
2022-11-03T06:48:39.108Z,246.57
2022-11-03T06:49:27.703Z,234.34
2022-11-03T06:50:01.052Z,261.23
2022-11-03T06:50:33.575Z,258.98
2022-11-03T06:51:15.118Z,263.33
2022-11-03T06:51:47.430Z,251.00
2022-11-03T06:52:19.790Z,186.60
2022-11-03T06:52:52.964Z,202.00
2022-11-03T06:53:27.178Z,223.00
2022-11-03T06:54:00.573Z,167.38
2022-11-03T06:54:32.993Z,215.90
2022-11-03T06:55:12.123Z,244.75
2022-11-03T06:55:48.687Z,229.57
2022-11-03T06:56:25.568Z,244.82
2022-11-03T06:56:57.907Z,251.30
2022-11-03T06:57:31.980Z,206.70
2022-11-03T06:58:30.557Z,227.88
2022-11-03T06:59:03.002Z,234.54
2022-11-03T06:59:35.388Z,269.60
2022-11-03T07:00:40.387Z,256.98
2022-11-03T07:01:16.343Z,288.88
2022-11-03T07:01:52.448Z,245.96
2022-11-03T07:02:43.269Z,259.60
2022-11-03T07:03:15.656Z,284.70
2022-11-03T07:03:49.573Z,249.68
2022-11-03T07:04:23.031Z,230.16
2022-11-03T07:04:55.619Z,285.05
2022-11-03T07:05:28.985Z,261.06
2022-11-03T07:06:10.216Z,248.94
2022-11-03T07:06:43.333Z,284.86
2022-11-03T07:07:15.781Z,179.52
2022-11-03T07:07:48.213Z,179.36
2022-11-03T07:08:28.755Z,245.64
2022-11-03T07:09:02.188Z,222.20
2022-11-03T07:09:34.707Z,207.80
2022-11-03T07:10:08.275Z,211.70
2022-11-03T07:10:40.646Z,258.82
2022-11-03T07:11:20.446Z,253.24
2022-11-03T07:11:58.037Z,274.58
2022-11-03T07:12:30.305Z,245.10
2022-11-03T07:13:10.545Z,178.42
2022-11-03T07:13:43.383Z,252.88
2022-11-03T07:14:20.347Z,242.22
2022-11-03T07:14:52.631Z,252.02
2022-11-03T07:15:33.419Z,241.02
2022-11-03T07:16:14.789Z,195.20
2022-11-03T07:16:52.096Z,281.50
2022-11-03T07:17:24.385Z,256.32
2022-11-03T07:17:56.981Z,230.60
2022-11-03T07:18:35.929Z,254.96
2022-11-03T07:19:18.816Z,266.66
2022-11-03T07:19:51.391Z,271.32
2022-11-03T07:20:24.219Z,282.38
2022-11-03T07:20:57.495Z,229.84
2022-11-03T07:21:44.590Z,275.56
2022-11-03T07:22:20.309Z,303.58
2022-11-03T07:22:52.907Z,272.16
2022-11-03T07:23:27.171Z,302.05
2022-11-03T07:24:00.443Z,268.33
2022-11-03T07:24:44.339Z,210.24
2022-11-03T07:25:19.124Z,225.74
2022-11-03T07:25:55.114Z,287.00
2022-11-03T07:26:27.919Z,231.92
2022-11-03T07:27:02.480Z,248.30
2022-11-03T07:27:36.511Z,296.17